Time;durP1;ratioP1;P1;durP2;ratioP2;P2;SDS_P1;SDS_P2;PMS_P1;PMS_P2;Temp;Humidity;BMP_temperature;BMP_pressure;BME280_temperature;BME280_humidity;BME280_pressure;Samples;Min_cycle;Max_cycle;Signal;HPM_P1;HPM_P2
2022/04/29 00:00:24;;;;;;;11.98;7.97;;;;;;;;;;4971682;28;20035;-74
2022/04/29 00:02:53;;;;;;;8.82;7.50;;;;;;;;;;4971619;28;20018;-74
2022/04/29 00:05:20;;;;;;;13.07;7.53;;;;;;;;;;4972925;28;20035;-74
2022/04/29 00:07:48;;;;;;;11.77;7.90;;;;;;;;;;4974907;28;20039;-74
2022/04/29 00:10:19;;;;;;;10.60;7.20;;;;;;;;;;4972016;28;20030;-74
2022/04/29 00:12:49;;;;;;;11.50;7.43;;;;;;;;;;4971500;28;20415;-74
2022/04/29 00:15:16;;;;;;;14.48;8.07;;;;;;;;;;4971102;28;20027;-74
2022/04/29 00:17:43;;;;;;;12.77;7.78;;;;;;;;;;4971533;28;20031;-74
2022/04/29 00:20:10;;;;;;;17.40;7.93;;;;;;;;;;4974002;28;20027;-74
2022/04/29 00:22:36;;;;;;;11.07;7.93;;;;;;;;;;4973362;28;20496;-74
2022/04/29 00:25:04;;;;;;;11.75;7.68;;;;;;;;;;4971764;28;20492;-74
2022/04/29 00:27:30;;;;;;;14.60;9.15;;;;;;;;;;4974098;28;20396;-74
2022/04/29 00:29:56;;;;;;;15.70;9.00;;;;;;;;;;4973835;28;20023;-74
2022/04/29 00:32:22;;;;;;;13.88;8.45;;;;;;;;;;4973970;28;20069;-74
2022/04/29 00:34:49;;;;;;;12.93;8.50;;;;;;;;;;4974018;28;20512;-74
2022/04/29 00:37:16;;;;;;;14.85;8.05;;;;;;;;;;4976247;28;20034;-74
2022/04/29 00:39:43;;;;;;;15.10;8.48;;;;;;;;;;4974195;28;20023;-74
2022/04/29 00:42:12;;;;;;;12.77;9.38;;;;;;;;;;4973937;28;20035;-74
2022/04/29 00:44:39;;;;;;;11.75;7.57;;;;;;;;;;4973729;28;20043;-74
2022/04/29 00:47:07;;;;;;;12.75;8.93;;;;;;;;;;4973982;28;20411;-74
2022/04/29 00:49:34;;;;;;;10.90;7.78;;;;;;;;;;4974662;28;20027;-74
2022/04/29 00:52:00;;;;;;;10.43;8.05;;;;;;;;;;4974330;28;20038;-74
2022/04/29 00:54:31;;;;;;;14.32;8.45;;;;;;;;;;4973728;28;20029;-74
2022/04/29 00:56:58;;;;;;;11.70;9.10;;;;;;;;;;4973861;28;20022;-74
2022/04/29 00:59:27;;;;;;;10.93;8.75;;;;;;;;;;4973382;28;20033;-74
2022/04/29 01:01:54;;;;;;;12.38;8.55;;;;;;;;;;4973954;28;20035;-74
2022/04/29 01:04:29;;;;;;;12.80;7.78;;;;;;;;;;4975631;28;20035;-74
2022/04/29 01:06:55;;;;;;;15.00;9.20;;;;;;;;;;4974860;28;20038;-73
2022/04/29 01:09:22;;;;;;;11.05;9.05;;;;;;;;;;4973401;28;20029;-74
2022/04/29 01:11:49;;;;;;;11.20;8.15;;;;;;;;;;4973427;28;20423;-74
2022/04/29 01:14:16;;;;;;;11.32;8.68;;;;;;;;;;4973039;28;20011;-74
2022/04/29 01:16:42;;;;;;;11.77;8.23;;;;;;;;;;4973412;28;20045;-74
2022/04/29 01:19:09;;;;;;;10.38;8.05;;;;;;;;;;4975171;28;20027;-74
2022/04/29 01:21:35;;;;;;;11.25;8.80;;;;;;;;;;4973125;28;20484;-74
2022/04/29 01:24:02;;;;;;;16.63;8.35;;;;;;;;;;4973184;28;20480;-74
2022/04/29 01:26:28;;;;;;;13.90;8.90;;;;;;;;;;4973240;28;20019;-74
2022/04/29 01:28:55;;;;;;;14.10;9.40;;;;;;;;;;4973219;28;20040;-74
2022/04/29 01:31:23;;;;;;;13.45;9.65;;;;;;;;;;4975026;28;20038;-74
2022/04/29 01:33:50;;;;;;;14.02;9.55;;;;;;;;;;4972888;28;20023;-74
2022/04/29 01:36:17;;;;;;;10.48;9.20;;;;;;;;;;4972946;28;20114;-74
2022/04/29 01:38:43;;;;;;;11.55;8.88;;;;;;;;;;4973070;28;20019;-74
2022/04/29 01:41:10;;;;;;;10.55;8.73;;;;;;;;;;4972994;28;20027;-74
2022/04/29 01:43:36;;;;;;;13.40;9.52;;;;;;;;;;4987242;28;20035;-74
2022/04/29 01:46:02;;;;;;;12.07;8.65;;;;;;;;;;4970080;28;20065;-73
2022/04/29 01:48:29;;;;;;;18.15;10.98;;;;;;;;;;4970019;28;20023;-74
2022/04/29 01:50:55;;;;;;;15.40;11.52;;;;;;;;;;4969831;28;20027;-74
2022/04/29 01:53:22;;;;;;;14.48;9.35;;;;;;;;;;4970620;28;20023;-74
2022/04/29 01:55:48;;;;;;;12.43;8.93;;;;;;;;;;4973304;28;20030;-74
2022/04/29 01:58:15;;;;;;;11.57;9.18;;;;;;;;;;4974436;28;20042;-74
2022/04/29 02:00:41;;;;;;;11.05;8.95;;;;;;;;;;4972578;28;20023;-74
2022/04/29 02:03:09;;;;;;;14.80;9.27;;;;;;;;;;4972251;28;20026;-74
2022/04/29 02:05:35;;;;;;;11.43;9.02;;;;;;;;;;4972569;28;20023;-74
2022/04/29 02:08:01;;;;;;;12.98;8.27;;;;;;;;;;4972444;28;20042;-74
2022/04/29 02:10:28;;;;;;;10.82;8.32;;;;;;;;;;4973583;28;20381;-73
2022/04/29 02:12:54;;;;;;;10.18;7.55;;;;;;;;;;4973178;28;20034;-73
2022/04/29 02:15:21;;;;;;;11.55;8.43;;;;;;;;;;4972211;28;20023;-73
2022/04/29 02:17:47;;;;;;;13.98;8.40;;;;;;;;;;4972071;28;20392;-73
2022/04/29 02:20:13;;;;;;;9.98;8.25;;;;;;;;;;4972242;28;20026;-74
2022/04/29 02:22:40;;;;;;;11.30;8.30;;;;;;;;;;4971353;28;20037;-73
2022/04/29 02:25:07;;;;;;;13.48;8.18;;;;;;;;;;4969316;28;20043;-73
2022/04/29 02:27:35;;;;;;;13.20;8.15;;;;;;;;;;4969111;28;20069;-73
2022/04/29 02:30:02;;;;;;;10.48;8.50;;;;;;;;;;4968961;28;20399;-73
2022/04/29 02:32:29;;;;;;;12.93;8.20;;;;;;;;;;4969058;28;20521;-74
2022/04/29 02:34:56;;;;;;;13.57;8.50;;;;;;;;;;4973354;28;20025;-73
2022/04/29 02:37:22;;;;;;;11.35;9.85;;;;;;;;;;4973820;28;20034;-74
2022/04/29 02:39:48;;;;;;;12.35;10.02;;;;;;;;;;4971606;28;20408;-73
2022/04/29 02:42:15;;;;;;;13.57;11.43;;;;;;;;;;4971936;28;20027;-73
2022/04/29 02:44:41;;;;;;;14.15;11.85;;;;;;;;;;4971771;28;20031;-73
2022/04/29 02:47:07;;;;;;;17.38;12.60;;;;;;;;;;4971790;28;20031;-73
2022/04/29 02:49:35;;;;;;;19.05;12.15;;;;;;;;;;4972608;28;20035;-73
2022/04/29 02:52:01;;;;;;;19.70;12.40;;;;;;;;;;4983549;28;20049;-73
2022/04/29 02:54:27;;;;;;;14.65;12.07;;;;;;;;;;4968563;28;20023;-73
2022/04/29 02:56:54;;;;;;;16.13;12.30;;;;;;;;;;4969013;28;20077;-73
2022/04/29 02:59:21;;;;;;;16.48;10.98;;;;;;;;;;4969689;28;20387;-73
2022/04/29 03:01:48;;;;;;;19.17;12.18;;;;;;;;;;4971073;28;20029;-73
2022/04/29 03:04:15;;;;;;;16.88;11.45;;;;;;;;;;4973419;28;20026;-73
2022/04/29 03:06:41;;;;;;;14.82;11.52;;;;;;;;;;4971280;28;20034;-73
2022/04/29 03:09:08;;;;;;;15.10;10.88;;;;;;;;;;4971106;28;20025;-73
2022/04/29 03:11:34;;;;;;;14.13;11.27;;;;;;;;;;4971265;28;20050;-73
2022/04/29 03:14:00;;;;;;;14.02;11.10;;;;;;;;;;4970547;28;20037;-73
2022/04/29 03:16:27;;;;;;;17.65;10.80;;;;;;;;;;4972912;28;20027;-73
2022/04/29 03:18:53;;;;;;;14.10;10.95;;;;;;;;;;4973319;28;20035;-73
2022/04/29 03:21:20;;;;;;;16.15;11.45;;;;;;;;;;4971311;28;20070;-73
2022/04/29 03:23:50;;;;;;;13.75;11.48;;;;;;;;;;4970844;28;20031;-73
2022/04/29 03:26:16;;;;;;;13.60;11.15;;;;;;;;;;4971211;28;20031;-73
2022/04/29 03:28:43;;;;;;;17.05;12.43;;;;;;;;;;4971326;28;20041;-73
2022/04/29 03:31:09;;;;;;;13.73;11.32;;;;;;;;;;4972979;28;20031;-73
2022/04/29 03:33:36;;;;;;;13.70;7.97;;;;;;;;;;4971118;28;20027;-73
2022/04/29 03:36:02;;;;;;;12.25;8.00;;;;;;;;;;4971100;28;20496;-73
2022/04/29 03:38:29;;;;;;;12.13;7.85;;;;;;;;;;4970835;28;20016;-73
2022/04/29 03:40:55;;;;;;;11.82;8.35;;;;;;;;;;4971301;28;20049;-73
2022/04/29 03:43:22;;;;;;;14.00;9.15;;;;;;;;;;4972935;28;20027;-73
2022/04/29 03:45:48;;;;;;;13.25;8.70;;;;;;;;;;4970851;28;20463;-73
2022/04/29 03:48:15;;;;;;;13.55;9.07;;;;;;;;;;4979040;28;20039;-73
2022/04/29 03:50:41;;;;;;;11.32;9.38;;;;;;;;;;4967888;28;20433;-73
2022/04/29 03:53:08;;;;;;;12.63;8.70;;;;;;;;;;4970833;28;20027;-73
2022/04/29 03:55:35;;;;;;;10.27;8.80;;;;;;;;;;4969833;28;20061;-73
2022/04/29 03:58:02;;;;;;;11.20;9.25;;;;;;;;;;4968426;28;20037;-73
2022/04/29 04:00:32;;;;;;;13.60;9.13;;;;;;;;;;4968054;28;20281;-73
2022/04/29 04:02:59;;;;;;;12.52;10.45;;;;;;;;;;4967799;28;20019;-73
2022/04/29 04:05:26;;;;;;;12.40;10.05;;;;;;;;;;4968330;28;20038;-73
2022/04/29 04:07:52;;;;;;;13.70;8.70;;;;;;;;;;4971832;28;20027;-73
2022/04/29 04:10:19;;;;;;;13.25;9.82;;;;;;;;;;4972843;28;20027;-73
2022/04/29 04:12:46;;;;;;;14.88;10.15;;;;;;;;;;4970605;28;20407;-73
2022/04/29 04:15:13;;;;;;;21.48;12.80;;;;;;;;;;4970754;28;20022;-73
2022/04/29 04:17:40;;;;;;;16.20;12.65;;;;;;;;;;4971064;28;20076;-73
2022/04/29 04:20:07;;;;;;;16.40;11.57;;;;;;;;;;4970797;28;20030;-73
2022/04/29 04:22:35;;;;;;;18.15;11.52;;;;;;;;;;4970911;28;20031;-73
2022/04/29 04:25:03;;;;;;;14.77;12.40;;;;;;;;;;4969485;28;20030;-73
2022/04/29 04:27:31;;;;;;;16.60;12.77;;;;;;;;;;4974617;28;20038;-73
2022/04/29 04:29:58;;;;;;;14.18;11.82;;;;;;;;;;4971234;28;20061;-73
2022/04/29 04:32:25;;;;;;;16.15;10.10;;;;;;;;;;4971663;28;20408;-73
2022/04/29 04:34:53;;;;;;;16.13;10.98;;;;;;;;;;4975240;28;20023;-73
2022/04/29 04:37:21;;;;;;;11.75;10.00;;;;;;;;;;4975582;28;20034;-73
2022/04/29 04:39:48;;;;;;;15.88;9.93;;;;;;;;;;4974224;28;20030;-73
2022/04/29 04:42:14;;;;;;;13.75;10.02;;;;;;;;;;4974005;28;20033;-73
2022/04/29 04:44:41;;;;;;;14.95;10.52;;;;;;;;;;4984475;28;20053;-73
2022/04/29 04:47:08;;;;;;;14.63;10.27;;;;;;;;;;4973791;28;20031;-73
2022/04/29 04:49:35;;;;;;;12.50;10.40;;;;;;;;;;4972966;28;20022;-73
2022/04/29 04:52:01;;;;;;;11.27;10.00;;;;;;;;;;4970976;28;20088;-73
2022/04/29 04:54:28;;;;;;;15.43;10.52;;;;;;;;;;4971100;28;20025;-73
2022/04/29 04:56:54;;;;;;;15.90;10.60;;;;;;;;;;4970637;28;20504;-73
2022/04/29 04:59:21;;;;;;;15.82;11.15;;;;;;;;;;4973971;28;20065;-73
2022/04/29 05:01:47;;;;;;;16.10;10.98;;;;;;;;;;4973928;28;20024;-74
2022/04/29 05:04:13;;;;;;;15.15;10.90;;;;;;;;;;4975316;28;20031;-73
2022/04/29 05:06:40;;;;;;;17.65;10.90;;;;;;;;;;4973142;28;20035;-73
2022/04/29 05:09:07;;;;;;;13.10;10.68;;;;;;;;;;4973813;28;20018;-73
2022/04/29 05:11:34;;;;;;;13.88;11.05;;;;;;;;;;4973367;28;20101;-73
2022/04/29 05:14:00;;;;;;;12.23;10.57;;;;;;;;;;4973531;28;20027;-73
2022/04/29 05:16:27;;;;;;;14.00;12.07;;;;;;;;;;4974963;28;20550;-73
2022/04/29 05:18:53;;;;;;;16.38;11.27;;;;;;;;;;4973489;28;20403;-73
2022/04/29 05:21:19;;;;;;;15.82;11.82;;;;;;;;;;4973424;28;20027;-74
2022/04/29 05:23:46;;;;;;;16.90;12.25;;;;;;;;;;4973251;28;20061;-73
2022/04/29 05:26:12;;;;;;;20.67;13.00;;;;;;;;;;4973577;28;20027;-73
2022/04/29 05:28:38;;;;;;;18.30;13.07;;;;;;;;;;4973419;28;20060;-74
2022/04/29 05:31:05;;;;;;;13.20;11.77;;;;;;;;;;4974625;28;20042;-73
2022/04/29 05:33:32;;;;;;;20.73;13.55;;;;;;;;;;4972555;28;20041;-73
2022/04/29 05:36:02;;;;;;;16.00;13.05;;;;;;;;;;4972294;28;20035;-73
2022/04/29 05:42:14;;;;;;;14.75;12.63;;;;;;;;;;4973016;28;20022;-73
2022/04/29 05:43:59;;;;;;;19.67;12.20;;;;;;;;;;4958091;28;20053;-73
2022/04/29 05:46:25;;;;;;;18.42;12.77;;;;;;;;;;4974701;28;20075;-73
2022/04/29 05:48:52;;;;;;;16.45;12.10;;;;;;;;;;4974020;28;20022;-73
2022/04/29 05:51:18;;;;;;;17.45;12.02;;;;;;;;;;4972530;28;20522;-73
2022/04/29 05:53:44;;;;;;;15.68;12.27;;;;;;;;;;4972655;28;20031;-73
2022/04/29 05:56:11;;;;;;;17.05;12.18;;;;;;;;;;4972555;28;20045;-73
2022/04/29 05:58:37;;;;;;;15.75;12.57;;;;;;;;;;4973065;28;20404;-73
2022/04/29 06:01:04;;;;;;;16.35;12.32;;;;;;;;;;4974111;28;20027;-73
2022/04/29 06:03:31;;;;;;;15.02;11.93;;;;;;;;;;4982518;28;20411;-73
2022/04/29 06:05:57;;;;;;;22.92;11.52;;;;;;;;;;4969522;28;20019;-73
2022/04/29 06:08:24;;;;;;;16.63;11.60;;;;;;;;;;4970133;28;20396;-73
2022/04/29 06:10:50;;;;;;;14.32;11.63;;;;;;;;;;4987015;28;20502;-73
2022/04/29 06:13:16;;;;;;;16.88;11.27;;;;;;;;;;4977715;28;20036;-73
2022/04/29 06:15:43;;;;;;;14.02;11.30;;;;;;;;;;4970759;28;20057;-73
2022/04/29 06:18:09;;;;;;;15.70;11.05;;;;;;;;;;4972134;28;20034;-73
2022/04/29 06:20:35;;;;;;;14.80;11.55;;;;;;;;;;4980231;28;20030;-73
2022/04/29 06:23:02;;;;;;;14.77;11.20;;;;;;;;;;4971382;28;20029;-73
2022/04/29 06:25:28;;;;;;;13.63;10.70;;;;;;;;;;4975268;28;20031;-73
2022/04/29 06:27:55;;;;;;;16.73;10.63;;;;;;;;;;4965645;28;20039;-74
2022/04/29 06:30:21;;;;;;;12.25;10.60;;;;;;;;;;4986659;28;20023;-73
2022/04/29 06:32:47;;;;;;;12.18;10.25;;;;;;;;;;4970421;28;20049;-73
2022/04/29 06:35:15;;;;;;;13.88;10.73;;;;;;;;;;4976870;28;20046;-74
2022/04/29 06:37:41;;;;;;;11.52;10.40;;;;;;;;;;4984928;28;20035;-73
2022/04/29 06:40:08;;;;;;;14.25;10.55;;;;;;;;;;4972620;28;20033;-73
2022/04/29 06:42:55;;;;;;;13.98;9.93;;;;;;;;;;4972603;28;20038;-73
2022/04/29 06:45:21;;;;;;;13.57;9.65;;;;;;;;;;4970158;28;20404;-73
2022/04/29 06:47:47;;;;;;;14.23;10.27;;;;;;;;;;4968252;28;20111;-74
2022/04/29 06:50:14;;;;;;;15.13;9.70;;;;;;;;;;4971516;28;20027;-73
2022/04/29 06:52:40;;;;;;;16.67;10.38;;;;;;;;;;4971168;28;20039;-73
2022/04/29 06:55:07;;;;;;;13.23;10.18;;;;;;;;;;4971570;28;20030;-73
2022/04/29 06:57:37;;;;;;;11.95;9.40;;;;;;;;;;4970074;28;20033;-73
2022/04/29 07:00:05;;;;;;;15.90;9.93;;;;;;;;;;4970465;28;20027;-73
2022/04/29 07:02:32;;;;;;;12.88;9.23;;;;;;;;;;4969409;28;20026;-73
2022/04/29 07:04:59;;;;;;;12.48;8.88;;;;;;;;;;4972364;28;20029;-73
2022/04/29 07:07:28;;;;;;;10.75;8.43;;;;;;;;;;4969328;28;20031;-73
2022/04/29 07:09:57;;;;;;;14.18;8.75;;;;;;;;;;4972521;28;20037;-73
2022/04/29 07:12:24;;;;;;;9.65;7.18;;;;;;;;;;4968198;28;20035;-73
2022/04/29 07:14:53;;;;;;;9.88;7.80;;;;;;;;;;4967727;28;20025;-73
2022/04/29 07:17:23;;;;;;;13.32;7.38;;;;;;;;;;4969039;28;20521;-73
2022/04/29 07:19:50;;;;;;;7.78;6.90;;;;;;;;;;4970753;28;20033;-73
2022/04/29 07:22:19;;;;;;;13.43;7.40;;;;;;;;;;4972088;28;20035;-73
2022/04/29 07:24:46;;;;;;;9.82;7.22;;;;;;;;;;4985566;28;20026;-73
2022/04/29 07:27:13;;;;;;;13.60;7.65;;;;;;;;;;4971360;28;20032;-73
2022/04/29 07:29:40;;;;;;;12.25;7.47;;;;;;;;;;4967773;28;20036;-73
2022/04/29 07:32:06;;;;;;;9.68;7.22;;;;;;;;;;4986531;28;20049;-73
2022/04/29 07:42:48;;;;;;;11.20;7.00;;;;;;;;;;4972107;28;20037;-74
2022/04/29 07:45:15;;;;;;;7.97;6.30;;;;;;;;;;4975404;28;20049;-73
2022/04/29 07:47:41;;;;;;;6.10;5.50;;;;;;;;;;4979201;28;20031;-74
2022/04/29 07:50:08;;;;;;;7.47;5.80;;;;;;;;;;4971303;28;20022;-74
2022/04/29 07:52:34;;;;;;;9.02;6.22;;;;;;;;;;4984303;28;20423;-74
2022/04/29 07:55:01;;;;;;;6.05;5.43;;;;;;;;;;4968484;28;20023;-74
2022/04/29 07:57:27;;;;;;;7.43;5.57;;;;;;;;;;4971016;28;20027;-74
2022/04/29 07:59:53;;;;;;;7.53;5.72;;;;;;;;;;4970620;28;20141;-72
2022/04/29 08:02:20;;;;;;;5.97;4.97;;;;;;;;;;4972602;28;20023;-72
2022/04/29 08:04:47;;;;;;;7.63;5.53;;;;;;;;;;4974561;28;20427;-72
2022/04/29 08:07:13;;;;;;;6.05;5.40;;;;;;;;;;4972259;28;20030;-74
2022/04/29 08:09:39;;;;;;;8.38;5.60;;;;;;;;;;4972539;28;20030;-74
2022/04/29 08:12:06;;;;;;;7.32;4.70;;;;;;;;;;4974410;28;20042;-74
2022/04/29 08:14:33;;;;;;;5.88;5.22;;;;;;;;;;4974352;28;20034;-74
2022/04/29 08:16:59;;;;;;;5.78;5.18;;;;;;;;;;4974347;28;20031;-74
2022/04/29 08:19:25;;;;;;;7.38;5.28;;;;;;;;;;4976575;28;20029;-74
2022/04/29 08:21:52;;;;;;;5.22;4.72;;;;;;;;;;4971068;28;20054;-75
2022/04/29 08:24:18;;;;;;;5.63;4.70;;;;;;;;;;4970985;28;20381;-74
2022/04/29 08:26:44;;;;;;;8.50;5.20;;;;;;;;;;4971414;28;20031;-74
2022/04/29 08:29:11;;;;;;;7.00;5.03;;;;;;;;;;4973282;28;20484;-74
2022/04/29 08:31:37;;;;;;;6.53;4.82;;;;;;;;;;4972458;28;20039;-72
2022/04/29 08:34:04;;;;;;;6.15;5.32;;;;;;;;;;4974139;28;20027;-72
2022/04/29 08:36:30;;;;;;;6.72;4.80;;;;;;;;;;4976220;28;20025;-72
2022/04/29 08:38:57;;;;;;;7.35;5.05;;;;;;;;;;4970899;28;20023;-72
2022/04/29 08:41:24;;;;;;;7.05;4.45;;;;;;;;;;4983885;28;20049;-72
2022/04/29 08:43:51;;;;;;;5.07;4.53;;;;;;;;;;4974905;28;20022;-72
2022/04/29 08:46:21;;;;;;;5.45;4.32;;;;;;;;;;4983030;28;20043;-72
2022/04/29 08:48:48;;;;;;;9.32;5.10;;;;;;;;;;4970764;28;20034;-72
2022/04/29 08:51:15;;;;;;;5.90;4.43;;;;;;;;;;4972187;28;20541;-72
2022/04/29 08:53:41;;;;;;;7.03;4.15;;;;;;;;;;4981746;28;20085;-72
2022/04/29 08:58:53;;;;;;;5.72;3.90;;;;;;;;;;4973412;28;20022;-72
2022/04/29 09:01:21;;;;;;;5.65;3.47;;;;;;;;;;4975290;28;20498;-73
2022/04/29 09:03:48;;;;;;;6.13;3.67;;;;;;;;;;4972049;28;20035;-73
2022/04/29 09:06:17;;;;;;;4.10;3.50;;;;;;;;;;4968068;28;20045;-72
2022/04/29 09:08:44;;;;;;;6.67;3.60;;;;;;;;;;4969990;28;20526;-72
2022/04/29 09:11:12;;;;;;;10.73;4.00;;;;;;;;;;4971288;28;20077;-73
2022/04/29 09:13:39;;;;;;;3.97;3.33;;;;;;;;;;4972419;28;20053;-72
2022/04/29 09:16:05;;;;;;;4.93;3.50;;;;;;;;;;4973199;28;20479;-73
2022/04/29 09:18:34;;;;;;;6.03;3.40;;;;;;;;;;4972511;28;20067;-72
2022/04/29 09:21:07;;;;;;;4.45;3.58;;;;;;;;;;4971204;28;20403;-72
2022/04/29 09:23:36;;;;;;;5.60;3.85;;;;;;;;;;4972776;28;20033;-72
2022/04/29 09:26:05;;;;;;;5.35;4.00;;;;;;;;;;4958315;28;20436;-73
2022/04/29 09:28:35;;;;;;;5.20;4.10;;;;;;;;;;4974157;28;20027;-73
2022/04/29 09:31:03;;;;;;;6.50;3.95;;;;;;;;;;4974441;28;20022;-73
2022/04/29 09:33:30;;;;;;;5.18;3.80;;;;;;;;;;4972251;28;20078;-73
2022/04/29 09:35:57;;;;;;;10.90;4.15;;;;;;;;;;4968274;28;20015;-73
2022/04/29 09:41:08;;;;;;;6.35;4.85;;;;;;;;;;4971755;28;20019;-73
2022/04/29 09:43:36;;;;;;;7.20;4.72;;;;;;;;;;4973227;28;20027;-73
2022/04/29 09:46:09;;;;;;;5.40;4.25;;;;;;;;;;4985429;28;20047;-72
2022/04/29 09:48:54;;;;;;;5.00;4.60;;;;;;;;;;4973717;28;20061;-72
2022/04/29 09:51:39;;;;;;;5.03;3.80;;;;;;;;;;4973641;28;20015;-73
2022/04/29 09:54:08;;;;;;;4.63;4.18;;;;;;;;;;4972728;28;20033;-72
2022/04/29 09:56:35;;;;;;;4.93;3.80;;;;;;;;;;4979236;28;20025;-73
2022/04/29 09:59:01;;;;;;;4.53;4.13;;;;;;;;;;4972965;28;20030;-72
2022/04/29 10:01:29;;;;;;;8.23;4.40;;;;;;;;;;4969653;28;20046;-71
2022/04/29 10:04:01;;;;;;;4.70;3.92;;;;;;;;;;4971430;28;20029;-72
2022/04/29 10:06:29;;;;;;;4.60;4.10;;;;;;;;;;4969073;28;20027;-73
2022/04/29 10:08:59;;;;;;;5.53;3.80;;;;;;;;;;4983623;28;20039;-72
2022/04/29 10:11:27;;;;;;;4.40;4.00;;;;;;;;;;4958076;28;20018;-73
2022/04/29 10:13:54;;;;;;;5.40;3.50;;;;;;;;;;4973183;28;20033;-73
2022/04/29 10:16:20;;;;;;;5.95;3.70;;;;;;;;;;4969518;28;20030;-73
2022/04/29 10:21:52;;;;;;;5.03;3.95;;;;;;;;;;4968796;28;20035;-73
2022/04/29 10:24:18;;;;;;;5.13;4.47;;;;;;;;;;4968143;28;20026;-73
2022/04/29 10:26:45;;;;;;;4.68;3.50;;;;;;;;;;4968680;28;20039;-73
2022/04/29 10:29:11;;;;;;;5.47;3.90;;;;;;;;;;4969782;28;20041;-73
2022/04/29 10:31:38;;;;;;;6.90;3.72;;;;;;;;;;4970769;28;20076;-73
2022/04/29 10:34:23;;;;;;;4.13;3.45;;;;;;;;;;4969396;28;20034;-73
2022/04/29 10:36:49;;;;;;;5.10;3.70;;;;;;;;;;4968885;28;20030;-72
2022/04/29 10:39:21;;;;;;;5.10;3.70;;;;;;;;;;4989327;28;20019;-73
2022/04/29 10:41:59;;;;;;;4.50;3.45;;;;;;;;;;4971206;28;20035;-72
2022/04/29 10:44:25;;;;;;;5.40;3.05;;;;;;;;;;4971166;28;20035;-73
2022/04/29 10:46:52;;;;;;;5.20;3.75;;;;;;;;;;4972033;28;20031;-72
2022/04/29 10:49:22;;;;;;;5.22;3.42;;;;;;;;;;4971533;28;20022;-73
2022/04/29 10:51:49;;;;;;;6.38;3.17;;;;;;;;;;4971248;28;20026;-72
2022/04/29 10:54:16;;;;;;;4.28;3.13;;;;;;;;;;4972409;28;20030;-72
2022/04/29 10:56:42;;;;;;;4.13;3.72;;;;;;;;;;4968181;28;20504;-73
2022/04/29 10:59:15;;;;;;;8.60;3.75;;;;;;;;;;4971324;28;20029;-73
2022/04/29 11:01:42;;;;;;;5.30;3.88;;;;;;;;;;4971049;28;20035;-73
2022/04/29 11:04:18;;;;;;;8.38;4.32;;;;;;;;;;4982024;28;20497;-73
2022/04/29 11:06:46;;;;;;;5.20;4.20;;;;;;;;;;4975001;28;20033;-72
2022/04/29 11:09:30;;;;;;;5.43;3.65;;;;;;;;;;4968305;28;20022;-73
2022/04/29 11:11:57;;;;;;;5.93;3.90;;;;;;;;;;4968343;28;20019;-73
2022/04/29 11:14:24;;;;;;;7.38;3.72;;;;;;;;;;4969201;28;20099;-72
2022/04/29 11:16:52;;;;;;;5.45;4.10;;;;;;;;;;4971797;28;20035;-73
2022/04/29 11:19:22;;;;;;;5.28;4.30;;;;;;;;;;4968768;28;20023;-73
2022/04/29 11:24:45;;;;;;;4.55;4.13;;;;;;;;;;4967979;28;20022;-73
2022/04/29 11:27:11;;;;;;;7.75;4.20;;;;;;;;;;4968176;28;20502;-73
2022/04/29 11:29:44;;;;;;;5.50;3.97;;;;;;;;;;4971098;28;20037;-72
2022/04/29 11:32:12;;;;;;;5.55;3.95;;;;;;;;;;4969438;28;20023;-73
2022/04/29 11:34:56;;;;;;;4.43;4.03;;;;;;;;;;4970980;28;20030;-73
2022/04/29 11:37:23;;;;;;;4.65;3.80;;;;;;;;;;4987945;28;20050;-73
2022/04/29 11:39:50;;;;;;;7.85;3.83;;;;;;;;;;4972257;28;20049;-73
2022/04/29 11:42:19;;;;;;;6.40;3.92;;;;;;;;;;4987498;28;20042;-73
2022/04/29 11:44:49;;;;;;;5.90;3.58;;;;;;;;;;4983239;28;20034;-72
2022/04/29 11:47:16;;;;;;;5.97;3.40;;;;;;;;;;4974707;28;20423;-73
2022/04/29 11:49:44;;;;;;;4.15;3.13;;;;;;;;;;4975804;28;20604;-73
2022/04/29 11:52:26;;;;;;;5.60;3.42;;;;;;;;;;4977900;28;20026;-73
2022/04/29 11:54:52;;;;;;;4.07;3.33;;;;;;;;;;4978873;28;20387;-73
2022/04/29 11:57:19;;;;;;;4.20;3.33;;;;;;;;;;4975984;28;20106;-73
2022/04/29 11:59:45;;;;;;;7.05;3.42;;;;;;;;;;4971297;28;20046;-72
2022/04/29 12:02:15;;;;;;;4.38;3.20;;;;;;;;;;4973575;28;20065;-73
2022/04/29 12:04:57;;;;;;;6.53;3.40;;;;;;;;;;4973126;28;20023;-73
2022/04/29 12:07:24;;;;;;;5.18;3.45;;;;;;;;;;4983540;28;20024;-74
2022/04/29 12:09:51;;;;;;;6.25;3.08;;;;;;;;;;4974502;28;20037;-73
2022/04/29 12:12:27;;;;;;;3.47;2.47;;;;;;;;;;4973917;28;20026;-73
2022/04/29 12:15:01;;;;;;;3.67;2.20;;;;;;;;;;4973580;28;20019;-73
2022/04/29 12:17:35;;;;;;;3.03;2.33;;;;;;;;;;4974944;28;20033;-73
2022/04/29 12:20:01;;;;;;;3.05;2.15;;;;;;;;;;4974097;28;20015;-74
2022/04/29 12:22:29;;;;;;;4.35;2.70;;;;;;;;;;4979028;28;20487;-75
2022/04/29 12:24:55;;;;;;;4.50;2.40;;;;;;;;;;4971386;28;20025;-74
2022/04/29 12:27:32;;;;;;;4.45;2.35;;;;;;;;;;4970865;28;20026;-75
2022/04/29 12:35:29;;;;;;;6.40;2.58;;;;;;;;;;4970233;28;20027;-75
2022/04/29 12:37:55;;;;;;;5.65;2.50;;;;;;;;;;4974480;28;20033;-75
2022/04/29 12:40:29;;;;;;;6.05;2.28;;;;;;;;;;4993883;28;20242;-75
2022/04/29 12:43:14;;;;;;;8.27;2.60;;;;;;;;;;4970405;28;20045;-75
2022/04/29 12:45:41;;;;;;;4.70;2.90;;;;;;;;;;4976171;28;20043;-73
2022/04/29 12:48:11;;;;;;;5.03;2.38;;;;;;;;;;4976022;28;20036;-74
2022/04/29 12:50:39;;;;;;;8.35;2.67;;;;;;;;;;4980433;28;20046;-73
2022/04/29 12:53:09;;;;;;;4.97;2.03;;;;;;;;;;4973703;28;20023;-73
2022/04/29 12:55:38;;;;;;;5.55;2.63;;;;;;;;;;4972317;28;20041;-73
2022/04/29 12:58:08;;;;;;;3.30;2.53;;;;;;;;;;4970784;28;20019;-75
2022/04/29 13:00:35;;;;;;;14.77;2.67;;;;;;;;;;4976467;28;20022;-75
2022/04/29 13:03:05;;;;;;;5.07;2.50;;;;;;;;;;4982341;28;20046;-75
2022/04/29 13:05:32;;;;;;;5.60;2.90;;;;;;;;;;4972363;28;20035;-75
2022/04/29 13:07:59;;;;;;;3.00;2.38;;;;;;;;;;4973907;28;20031;-75
2022/04/29 13:10:25;;;;;;;2.85;2.47;;;;;;;;;;4980178;28;20014;-75
2022/04/29 13:12:52;;;;;;;4.85;2.90;;;;;;;;;;4969900;28;20081;-75
2022/04/29 13:15:18;;;;;;;8.88;2.88;;;;;;;;;;4972097;28;20080;-74
2022/04/29 13:17:45;;;;;;;4.53;2.50;;;;;;;;;;4974341;28;20039;-74
2022/04/29 13:20:11;;;;;;;6.82;2.70;;;;;;;;;;4989318;28;20022;-75
2022/04/29 13:22:39;;;;;;;4.40;2.65;;;;;;;;;;4973528;28;20046;-75
2022/04/29 13:25:06;;;;;;;8.10;2.58;;;;;;;;;;4974188;28;20081;-74
2022/04/29 13:27:34;;;;;;;6.35;2.60;;;;;;;;;;4968781;28;20027;-75
2022/04/29 13:30:03;;;;;;;4.15;2.63;;;;;;;;;;4973510;28;20037;-75
2022/04/29 13:32:30;;;;;;;3.45;2.60;;;;;;;;;;4973138;28;20029;-74
2022/04/29 13:34:56;;;;;;;5.93;2.78;;;;;;;;;;4972141;28;20041;-75
2022/04/29 13:37:23;;;;;;;5.80;2.90;;;;;;;;;;4970514;28;20026;-75
2022/04/29 13:39:49;;;;;;;5.88;2.58;;;;;;;;;;4971936;28;20488;-75
2022/04/29 13:42:15;;;;;;;5.28;2.60;;;;;;;;;;4970386;28;20038;-74
2022/04/29 13:44:42;;;;;;;7.22;2.63;;;;;;;;;;4970863;28;20043;-75
2022/04/29 13:47:09;;;;;;;8.30;2.92;;;;;;;;;;4972943;28;20030;-75
2022/04/29 13:49:35;;;;;;;8.98;2.97;;;;;;;;;;4973391;28;20480;-74
2022/04/29 13:53:07;;;;;;;8.10;3.00;;;;;;;;;;4969859;28;20039;-75
2022/04/29 13:54:48;;;;;;;6.68;3.13;;;;;;;;;;4972022;28;20037;-74
2022/04/29 13:57:15;;;;;;;5.70;2.47;;;;;;;;;;4971718;28;20026;-74
2022/04/29 13:59:41;;;;;;;10.57;3.00;;;;;;;;;;4971364;28;20395;-75
2022/04/29 14:02:08;;;;;;;5.38;2.80;;;;;;;;;;4974584;28;20030;-74
2022/04/29 14:04:35;;;;;;;5.45;2.85;;;;;;;;;;4986260;28;20481;-75
2022/04/29 14:07:01;;;;;;;8.82;2.58;;;;;;;;;;4973313;28;20041;-74
2022/04/29 14:09:28;;;;;;;6.75;2.70;;;;;;;;;;4974254;28;20030;-74
2022/04/29 14:11:55;;;;;;;9.93;3.10;;;;;;;;;;4977109;28;20035;-74
2022/04/29 14:14:21;;;;;;;10.18;3.17;;;;;;;;;;4970727;28;20019;-75
2022/04/29 14:16:50;;;;;;;8.23;3.38;;;;;;;;;;4970539;28;20026;-74
2022/04/29 14:19:16;;;;;;;10.90;3.22;;;;;;;;;;4980549;28;20028;-74
2022/04/29 14:21:43;;;;;;;8.93;3.03;;;;;;;;;;4970260;28;20031;-75
2022/04/29 14:24:09;;;;;;;9.93;2.90;;;;;;;;;;4969469;28;20026;-74
2022/04/29 14:26:36;;;;;;;6.90;3.10;;;;;;;;;;4968989;28;20024;-74
2022/04/29 14:29:02;;;;;;;7.70;2.80;;;;;;;;;;4968576;28;20038;-75
2022/04/29 14:31:30;;;;;;;6.13;2.90;;;;;;;;;;4973240;28;20018;-75
2022/04/29 14:33:58;;;;;;;9.82;3.20;;;;;;;;;;4972276;28;20041;-74
2022/04/29 14:36:33;;;;;;;8.18;3.42;;;;;;;;;;4968338;28;20023;-75
2022/04/29 14:39:00;;;;;;;8.82;3.22;;;;;;;;;;4968700;28;20369;-74
2022/04/29 14:41:28;;;;;;;5.60;2.92;;;;;;;;;;4969346;28;20027;-74
2022/04/29 14:43:57;;;;;;;7.57;3.40;;;;;;;;;;4971459;28;20030;-74
2022/04/29 14:46:25;;;;;;;7.55;2.80;;;;;;;;;;4971789;28;20038;-75
2022/04/29 14:48:51;;;;;;;10.80;3.10;;;;;;;;;;4968270;28;20039;-74
2022/04/29 14:51:18;;;;;;;10.52;3.20;;;;;;;;;;4968216;28;20031;-74
2022/04/29 14:53:44;;;;;;;7.55;2.90;;;;;;;;;;4986190;28;20027;-75
2022/04/29 14:56:10;;;;;;;7.30;3.13;;;;;;;;;;4971278;28;20435;-74
2022/04/29 14:58:37;;;;;;;5.47;2.78;;;;;;;;;;4970340;28;20373;-74
2022/04/29 15:01:03;;;;;;;10.20;3.85;;;;;;;;;;4967989;28;20030;-74
2022/04/29 15:03:29;;;;;;;9.88;3.38;;;;;;;;;;4968005;28;20035;-74